Time;durP1;ratioP1;P1;durP2;ratioP2;P2;SDS_P1;SDS_P2;PMS_P1;PMS_P2;Temp;Humidity;BMP_temperature;BMP_pressure;BME280_temperature;BME280_humidity;BME280_pressure;Samples;Min_cycle;Max_cycle;Signal;HPM_P1;HPM_P2
2022/01/27 00:00:38;;;;;;;;;;;;;;;;;;5041918;28;19917;-91
2022/01/27 00:05:57;;;;;;;;;;;;;;;;;;5054422;28;20308;-88
2022/01/27 00:08:40;;;;;;;;;;;;;;;;;;5038552;28;20338;-85
2022/01/27 00:11:29;;;;;;;;;;;;;;;;;;5031315;28;20011;-87
2022/01/27 00:14:00;;;;;;;;;;;;;;;;;;5035076;28;20368;-89
2022/01/27 00:16:38;;;;;;;;;;;;;;;;;;5057926;28;20008;-87
2022/01/27 00:19:03;;;;;;;;;;;;;;;;;;5053168;28;19924;-87
2022/01/27 00:21:30;;;;;;;;;;;;;;;;;;5030401;28;19917;-86
2022/01/27 00:23:55;;;;;;;;;;;;;;;;;;5053659;28;20269;-89
2022/01/27 00:26:23;;;;;;;;;;;;;;;;;;5037246;28;19921;-90
2022/01/27 00:28:48;;;;;;;;;;;;;;;;;;5037660;28;19913;-88
2022/01/27 00:31:14;;;;;;;;;;;;;;;;;;5038818;28;19917;-85
2022/01/27 00:33:39;;;;;;;;;;;;;;;;;;5030579;28;19917;-89
2022/01/27 00:36:05;;;;;;;;;;;;;;;;;;5052783;28;19921;-92
2022/01/27 00:41:19;;;;;;;;;;;;;;;;;;5027522;28;19927;-84
2022/01/27 00:43:48;;;;;;;;;;;;;;;;;;5034079;28;19924;-84
2022/01/27 00:46:16;;;;;;;;;;;;;;;;;;5036704;28;20007;-87
2022/01/27 00:48:42;;;;;;;;;;;;;;;;;;5037264;28;20416;-85
2022/01/27 00:51:10;;;;;;;;;;;;;;;;;;5055316;28;19948;-85
2022/01/27 00:53:45;;;;;;;;;;;;;;;;;;5064084;28;20300;-89
2022/01/27 00:56:22;;;;;;;;;;;;;;;;;;5058617;28;20402;-84
2022/01/27 01:02:12;;;;;;;;;;;;;;;;;;4976575;28;19961;-85
2022/01/27 01:04:41;;;;;;;;;;;;;;;;;;4976631;28;19950;-83
2022/01/27 01:07:15;;;;;;;;;;;;;;;;;;4938184;29;19915;-83
2022/01/27 01:13:01;;;;;;;;;;;;;;;;;;4981188;28;19922;-88
2022/01/27 01:15:36;;;;;;;;;;;;;;;;;;4974744;28;19918;-86
2022/01/27 01:21:15;;;;;;;;;;;;;;;;;;4976236;28;19944;-85
2022/01/27 01:34:21;;;;;;;;;;;;;;;;;;5056717;28;20389;-82
2022/01/27 01:36:59;;;;;;;;;;;;;;;;;;5045575;28;19917;-85
2022/01/27 01:39:26;;;;;;;;;;;;;;;;;;5052527;28;20481;-84
2022/01/27 01:41:53;;;;;;;;;;;;;;;;;;5050395;28;19996;-83
2022/01/27 01:44:19;;;;;;;;;;;;;;;;;;5049576;28;20074;-85
2022/01/27 01:46:44;;;;;;;;;;;;;;;;;;5039072;28;19992;-84
2022/01/27 01:49:09;;;;;;;;;;;;;;;;;;5056361;28;19925;-85
2022/01/27 01:51:35;;;;;;;;;;;;;;;;;;5039101;28;19975;-85
2022/01/27 01:54:01;;;;;;;;;;;;;;;;;;5056626;28;19917;-85
2022/01/27 01:56:26;;;;;;;;;;;;;;;;;;5056412;28;19916;-85
2022/01/27 01:58:51;;;;;;;;;;;;;;;;;;5024189;28;20354;-83
2022/01/27 02:01:17;;;;;;;;;;;;;;;;;;5056406;28;20445;-84
2022/01/27 02:03:42;;;;;;;;;;;;;;;;;;5056256;28;19924;-85
2022/01/27 02:06:11;;;;;;;;;;;;;;;;;;5056024;28;19913;-83
2022/01/27 02:09:01;;;;;;;;;;;;;;;;;;5021476;28;20491;-84
2022/01/27 02:19:39;;;;;;;;;;;;;;;;;;5055644;28;19924;-84
2022/01/27 02:22:04;;;;;;;;;;;;;;;;;;5055916;28;19916;-83
2022/01/27 02:24:33;;;;;;;;;;;;;;;;;;5055202;28;19917;-84
2022/01/27 02:26:59;;;;;;;;;;;;;;;;;;5038497;28;20257;-84
2022/01/27 02:29:24;;;;;;;;;;;;;;;;;;5037616;28;20023;-84
2022/01/27 02:31:51;;;;;;;;;;;;;;;;;;5037942;28;20008;-83
2022/01/27 02:34:18;;;;;;;;;;;;;;;;;;5057511;28;20011;-84
2022/01/27 02:36:44;;;;;;;;;;;;;;;;;;5038374;28;20026;-84
2022/01/27 02:39:10;;;;;;;;;;;;;;;;;;5055216;28;20079;-83
2022/01/27 02:41:36;;;;;;;;;;;;;;;;;;5055492;28;20345;-81
2022/01/27 02:44:02;;;;;;;;;;;;;;;;;;5054925;28;20467;-84
2022/01/27 02:46:33;;;;;;;;;;;;;;;;;;5013419;28;19917;-84
2022/01/27 02:48:58;;;;;;;;;;;;;;;;;;5031012;28;19917;-83
2022/01/27 02:51:26;;;;;;;;;;;;;;;;;;5054389;28;19917;-85
2022/01/27 02:53:53;;;;;;;;;;;;;;;;;;5055211;28;19928;-83
2022/01/27 02:56:19;;;;;;;;;;;;;;;;;;5054887;28;19928;-82
2022/01/27 02:58:46;;;;;;;;;;;;;;;;;;5054350;28;19925;-83
2022/01/27 03:01:11;;;;;;;;;;;;;;;;;;5046769;28;20015;-84
2022/01/27 03:03:36;;;;;;;;;;;;;;;;;;5036806;28;20011;-83
2022/01/27 03:06:02;;;;;;;;;;;;;;;;;;5036473;28;19916;-83
2022/01/27 03:08:27;;;;;;;;;;;;;;;;;;5037030;28;19927;-82
2022/01/27 03:10:53;;;;;;;;;;;;;;;;;;5046768;28;19917;-83
2022/01/27 03:13:20;;;;;;;;;;;;;;;;;;5030313;28;19916;-84
2022/01/27 03:15:46;;;;;;;;;;;;;;;;;;5037164;28;20273;-84
2022/01/27 03:18:13;;;;;;;;;;;;;;;;;;5054185;28;19921;-83
2022/01/27 03:20:39;;;;;;;;;;;;;;;;;;5054124;28;19917;-82
2022/01/27 03:23:06;;;;;;;;;;;;;;;;;;5054493;28;19965;-83
2022/01/27 03:25:31;;;;;;;;;;;;;;;;;;5028648;28;19921;-83
2022/01/27 03:27:57;;;;;;;;;;;;;;;;;;5054460;28;19951;-82
2022/01/27 03:30:22;;;;;;;;;;;;;;;;;;5054167;28;19928;-83
2022/01/27 03:32:48;;;;;;;;;;;;;;;;;;5054300;28;19913;-82
2022/01/27 03:35:13;;;;;;;;;;;;;;;;;;5054277;28;19917;-83
2022/01/27 03:37:38;;;;;;;;;;;;;;;;;;5054559;28;19920;-83
2022/01/27 03:40:04;;;;;;;;;;;;;;;;;;5053919;28;19924;-83
2022/01/27 03:42:30;;;;;;;;;;;;;;;;;;5036584;28;19917;-84
2022/01/27 03:44:57;;;;;;;;;;;;;;;;;;5054491;28;20418;-83
2022/01/27 03:47:25;;;;;;;;;;;;;;;;;;5054349;28;19939;-82
2022/01/27 03:49:50;;;;;;;;;;;;;;;;;;5037070;28;19928;-82
2022/01/27 03:52:17;;;;;;;;;;;;;;;;;;5057897;28;20251;-83
2022/01/27 03:54:43;;;;;;;;;;;;;;;;;;5054887;28;19916;-81
2022/01/27 03:57:08;;;;;;;;;;;;;;;;;;5053889;28;20321;-81
2022/01/27 03:59:33;;;;;;;;;;;;;;;;;;5054199;28;19916;-82
2022/01/27 04:01:58;;;;;;;;;;;;;;;;;;5054107;28;19916;-82
2022/01/27 04:04:25;;;;;;;;;;;;;;;;;;5053026;28;20305;-82
2022/01/27 04:06:52;;;;;;;;;;;;;;;;;;5054579;28;19940;-81
2022/01/27 04:09:20;;;;;;;;;;;;;;;;;;5047931;28;19959;-82
2022/01/27 04:11:46;;;;;;;;;;;;;;;;;;5053884;28;19956;-82
2022/01/27 04:14:11;;;;;;;;;;;;;;;;;;5036627;28;19931;-82
2022/01/27 04:16:36;;;;;;;;;;;;;;;;;;5053848;28;20273;-81
2022/01/27 04:19:06;;;;;;;;;;;;;;;;;;5053939;28;19924;-82
2022/01/27 04:21:32;;;;;;;;;;;;;;;;;;5053780;28;19920;-79
2022/01/27 04:23:57;;;;;;;;;;;;;;;;;;5036350;28;19927;-81
2022/01/27 04:26:31;;;;;;;;;;;;;;;;;;5035905;28;20426;-81
2022/01/27 04:28:56;;;;;;;;;;;;;;;;;;5053578;28;20383;-79
2022/01/27 04:31:24;;;;;;;;;;;;;;;;;;5053761;28;19921;-81
2022/01/27 04:33:52;;;;;;;;;;;;;;;;;;5056840;28;20322;-81
2022/01/27 04:36:29;;;;;;;;;;;;;;;;;;5058073;28;19956;-81
2022/01/27 04:39:09;;;;;;;;;;;;;;;;;;5057755;28;20257;-80
2022/01/27 04:41:45;;;;;;;;;;;;;;;;;;5054690;28;19917;-80
2022/01/27 04:46:56;;;;;;;;;;;;;;;;;;5055208;28;19927;-82
2022/01/27 04:49:21;;;;;;;;;;;;;;;;;;5057707;28;20003;-81
2022/01/27 04:51:49;;;;;;;;;;;;;;;;;;5057190;28;20556;-73
2022/01/27 04:54:22;;;;;;;;;;;;;;;;;;5052961;28;19959;-75
2022/01/27 04:56:50;;;;;;;;;;;;;;;;;;5057420;28;19924;-76
2022/01/27 04:59:23;;;;;;;;;;;;;;;;;;5028549;28;19927;-75
2022/01/27 05:01:56;;;;;;;;;;;;;;;;;;5049043;28;20360;-75
2022/01/27 05:04:24;;;;;;;;;;;;;;;;;;5049179;28;20507;-75
2022/01/27 05:06:50;;;;;;;;;;;;;;;;;;5056831;28;19928;-75
2022/01/27 05:09:16;;;;;;;;;;;;;;;;;;5056554;28;19916;-74
2022/01/27 05:14:19;;;;;;;;;;;;;;;;;;5057474;28;19920;-75
2022/01/27 05:16:44;;;;;;;;;;;;;;;;;;5057236;28;19917;-74
2022/01/27 05:19:09;;;;;;;;;;;;;;;;;;5056917;28;19921;-75
2022/01/27 05:21:37;;;;;;;;;;;;;;;;;;5056986;28;19944;-74
2022/01/27 05:24:02;;;;;;;;;;;;;;;;;;5039911;28;20341;-74
2022/01/27 05:26:28;;;;;;;;;;;;;;;;;;5037372;28;20006;-74
2022/01/27 05:28:53;;;;;;;;;;;;;;;;;;5039424;28;19917;-74
2022/01/27 05:31:18;;;;;;;;;;;;;;;;;;5056965;28;19917;-74
2022/01/27 05:33:43;;;;;;;;;;;;;;;;;;5055558;28;19921;-74
2022/01/27 05:36:09;;;;;;;;;;;;;;;;;;5057232;28;19966;-75
2022/01/27 05:38:37;;;;;;;;;;;;;;;;;;5056908;28;19928;-74
2022/01/27 05:41:05;;;;;;;;;;;;;;;;;;5057136;28;19963;-75
2022/01/27 05:43:30;;;;;;;;;;;;;;;;;;5056142;28;19917;-75
2022/01/27 05:45:58;;;;;;;;;;;;;;;;;;5039305;28;20008;-74
2022/01/27 05:48:25;;;;;;;;;;;;;;;;;;5056616;28;19916;-74
2022/01/27 05:50:56;;;;;;;;;;;;;;;;;;5056593;28;20716;-75
2022/01/27 05:53:22;;;;;;;;;;;;;;;;;;5052340;28;19924;-75
2022/01/27 05:55:47;;;;;;;;;;;;;;;;;;5056598;28;19977;-75
2022/01/27 05:58:14;;;;;;;;;;;;;;;;;;5056053;28;19920;-77
2022/01/27 06:00:39;;;;;;;;;;;;;;;;;;5055985;28;19916;-75
2022/01/27 06:03:05;;;;;;;;;;;;;;;;;;5056448;28;19917;-74
2022/01/27 06:05:30;;;;;;;;;;;;;;;;;;5038713;28;19928;-75
2022/01/27 06:07:55;;;;;;;;;;;;;;;;;;5039094;28;20014;-75
2022/01/27 06:10:20;;;;;;;;;;;;;;;;;;5055831;28;20255;-75
2022/01/27 06:12:46;;;;;;;;;;;;;;;;;;5056193;28;19920;-76
2022/01/27 06:15:11;;;;;;;;;;;;;;;;;;5056168;28;19921;-76
2022/01/27 06:17:36;;;;;;;;;;;;;;;;;;5055931;28;19928;-74
2022/01/27 06:20:02;;;;;;;;;;;;;;;;;;5055863;28;19927;-76
2022/01/27 06:22:28;;;;;;;;;;;;;;;;;;5055645;28;20372;-77
2022/01/27 06:24:55;;;;;;;;;;;;;;;;;;5037087;28;19945;-75
2022/01/27 06:27:21;;;;;;;;;;;;;;;;;;5048419;28;19916;-76
2022/01/27 06:29:46;;;;;;;;;;;;;;;;;;5053403;28;19928;-72
2022/01/27 06:32:11;;;;;;;;;;;;;;;;;;5050556;28;19917;-73
2022/01/27 06:34:36;;;;;;;;;;;;;;;;;;5055783;28;20207;-73
2022/01/27 06:37:04;;;;;;;;;;;;;;;;;;5056026;28;19975;-73
2022/01/27 06:39:29;;;;;;;;;;;;;;;;;;5055519;28;19974;-73
2022/01/27 06:41:55;;;;;;;;;;;;;;;;;;5055675;28;20393;-76
2022/01/27 06:44:20;;;;;;;;;;;;;;;;;;5056552;28;20003;-74
2022/01/27 06:46:45;;;;;;;;;;;;;;;;;;5057073;28;20326;-73
2022/01/27 06:49:16;;;;;;;;;;;;;;;;;;5039350;28;20372;-74
2022/01/27 06:51:41;;;;;;;;;;;;;;;;;;5056763;28;21326;-73
2022/01/27 06:54:07;;;;;;;;;;;;;;;;;;5055242;28;19943;-73
2022/01/27 06:56:34;;;;;;;;;;;;;;;;;;5054853;28;19927;-73
2022/01/27 06:58:59;;;;;;;;;;;;;;;;;;5054869;28;20389;-73
2022/01/27 07:01:24;;;;;;;;;;;;;;;;;;5055119;28;19917;-73
2022/01/27 07:03:50;;;;;;;;;;;;;;;;;;5037651;28;19917;-73
2022/01/27 07:06:15;;;;;;;;;;;;;;;;;;5055482;28;19928;-73
2022/01/27 07:08:43;;;;;;;;;;;;;;;;;;5037452;28;20433;-73
2022/01/27 07:11:10;;;;;;;;;;;;;;;;;;5055308;28;19927;-73
2022/01/27 07:13:40;;;;;;;;;;;;;;;;;;5033307;28;20313;-73
2022/01/27 07:16:06;;;;;;;;;;;;;;;;;;5054736;28;19999;-73
2022/01/27 07:18:31;;;;;;;;;;;;;;;;;;5036878;28;20292;-75
2022/01/27 07:20:59;;;;;;;;;;;;;;;;;;5055036;28;19916;-73
2022/01/27 07:23:24;;;;;;;;;;;;;;;;;;5055090;28;20300;-74
2022/01/27 07:25:52;;;;;;;;;;;;;;;;;;5037607;28;19916;-76
2022/01/27 07:28:17;;;;;;;;;;;;;;;;;;5054166;28;19966;-73
2022/01/27 07:30:42;;;;;;;;;;;;;;;;;;5054469;28;19913;-74
2022/01/27 07:33:12;;;;;;;;;;;;;;;;;;5036757;28;19966;-75
2022/01/27 07:35:37;;;;;;;;;;;;;;;;;;5037447;28;20239;-73
2022/01/27 07:38:05;;;;;;;;;;;;;;;;;;5054381;28;19920;-75
2022/01/27 07:40:30;;;;;;;;;;;;;;;;;;5054589;28;20242;-74
2022/01/27 07:43:00;;;;;;;;;;;;;;;;;;5050088;28;19932;-76
2022/01/27 07:45:26;;;;;;;;;;;;;;;;;;5054849;28;19978;-74
2022/01/27 07:47:51;;;;;;;;;;;;;;;;;;5052464;28;20385;-74
2022/01/27 07:50:16;;;;;;;;;;;;;;;;;;5030073;28;19917;-73
2022/01/27 07:52:46;;;;;;;;;;;;;;;;;;5052764;28;19923;-75
2022/01/27 07:55:12;;;;;;;;;;;;;;;;;;5045842;28;20023;-74
2022/01/27 07:57:37;;;;;;;;;;;;;;;;;;5048092;28;19940;-74
2022/01/27 08:00:04;;;;;;;;;;;;;;;;;;5048505;28;19917;-74
2022/01/27 08:02:29;;;;;;;;;;;;;;;;;;5045613;28;20007;-74
2022/01/27 08:04:56;;;;;;;;;;;;;;;;;;5035447;28;19927;-74
2022/01/27 08:07:24;;;;;;;;;;;;;;;;;;5034634;28;19933;-74
2022/01/27 08:09:49;;;;;;;;;;;;;;;;;;5036212;28;19917;-74
2022/01/27 08:12:14;;;;;;;;;;;;;;;;;;5047645;28;19917;-75
2022/01/27 08:14:42;;;;;;;;;;;;;;;;;;5049493;28;19987;-75
2022/01/27 08:17:07;;;;;;;;;;;;;;;;;;5050088;28;20437;-74
2022/01/27 08:19:35;;;;;;;;;;;;;;;;;;5048520;28;19992;-75
2022/01/27 08:22:02;;;;;;;;;;;;;;;;;;5052361;28;19916;-74
2022/01/27 08:24:28;;;;;;;;;;;;;;;;;;5049210;28;19925;-75
2022/01/27 08:26:59;;;;;;;;;;;;;;;;;;5030519;28;20007;-75
2022/01/27 08:29:32;;;;;;;;;;;;;;;;;;5053775;28;19916;-76
2022/01/27 08:32:01;;;;;;;;;;;;;;;;;;5051463;28;19968;-76
2022/01/27 08:34:33;;;;;;;;;;;;;;;;;;5020060;28;19969;-77
2022/01/27 08:36:59;;;;;;;;;;;;;;;;;;5036920;28;20265;-77
2022/01/27 08:39:24;;;;;;;;;;;;;;;;;;5053786;28;19913;-76
2022/01/27 08:41:49;;;;;;;;;;;;;;;;;;5045220;28;19916;-77
2022/01/27 08:44:17;;;;;;;;;;;;;;;;;;5036840;28;20003;-76
2022/01/27 08:46:45;;;;;;;;;;;;;;;;;;5036792;28;20003;-77
2022/01/27 08:49:10;;;;;;;;;;;;;;;;;;5053884;28;19916;-77
2022/01/27 08:51:38;;;;;;;;;;;;;;;;;;5043567;28;19979;-76
2022/01/27 08:54:06;;;;;;;;;;;;;;;;;;5041072;28;19919;-76
2022/01/27 08:56:31;;;;;;;;;;;;;;;;;;5050188;28;19920;-75
2022/01/27 08:58:57;;;;;;;;;;;;;;;;;;5053555;28;19921;-75
2022/01/27 09:01:24;;;;;;;;;;;;;;;;;;5035879;28;19917;-76
2022/01/27 09:03:50;;;;;;;;;;;;;;;;;;5021473;28;19979;-77
2022/01/27 09:06:15;;;;;;;;;;;;;;;;;;5039713;28;19912;-76
2022/01/27 09:08:40;;;;;;;;;;;;;;;;;;5052161;28;19917;-77
2022/01/27 09:11:09;;;;;;;;;;;;;;;;;;5018172;28;20004;-76
2022/01/27 09:13:37;;;;;;;;;;;;;;;;;;5051683;28;19913;-77
2022/01/27 09:16:05;;;;;;;;;;;;;;;;;;5039187;28;19927;-77
2022/01/27 09:18:30;;;;;;;;;;;;;;;;;;5037398;28;19920;-80
2022/01/27 09:20:59;;;;;;;;;;;;;;;;;;5033639;28;19928;-78
2022/01/27 09:23:26;;;;;;;;;;;;;;;;;;5057899;28;19924;-77
2022/01/27 09:25:55;;;;;;;;;;;;;;;;;;5035902;28;19921;-77
2022/01/27 09:28:20;;;;;;;;;;;;;;;;;;5048693;28;19924;-77
2022/01/27 09:30:48;;;;;;;;;;;;;;;;;;5041263;28;19917;-77
2022/01/27 09:33:16;;;;;;;;;;;;;;;;;;5023096;28;19916;-79
2022/01/27 09:35:41;;;;;;;;;;;;;;;;;;5040330;28;19925;-79
2022/01/27 09:38:06;;;;;;;;;;;;;;;;;;5039698;28;19921;-77
2022/01/27 09:40:36;;;;;;;;;;;;;;;;;;5057722;28;19927;-78
2022/01/27 09:43:05;;;;;;;;;;;;;;;;;;5040016;28;19924;-78
2022/01/27 09:45:33;;;;;;;;;;;;;;;;;;5044985;28;19928;-78
2022/01/27 09:48:02;;;;;;;;;;;;;;;;;;5031515;28;19917;-78
2022/01/27 09:53:00;;;;;;;;;;;;;;;;;;5058164;28;19913;-78
2022/01/27 09:55:26;;;;;;;;;;;;;;;;;;5057256;28;19928;-77
2022/01/27 09:57:54;;;;;;;;;;;;;;;;;;5038556;28;19939;-77
2022/01/27 10:00:20;;;;;;;;;;;;;;;;;;5039274;28;19921;-78
2022/01/27 10:03:13;;;;;;;;;;;;;;;;;;5039815;28;19923;-79
2022/01/27 10:05:42;;;;;;;;;;;;;;;;;;5022339;28;19963;-77
2022/01/27 10:08:21;;;;;;;;;;;;;;;;;;5039199;28;20322;-79
2022/01/27 10:10:50;;;;;;;;;;;;;;;;;;5027880;28;19913;-84
2022/01/27 10:13:31;;;;;;;;;;;;;;;;;;5032864;28;19914;-87
2022/01/27 10:16:06;;;;;;;;;;;;;;;;;;5051527;28;19992;-84
2022/01/27 10:18:49;;;;;;;;;;;;;;;;;;5028416;28;19921;-87
2022/01/27 10:21:14;;;;;;;;;;;;;;;;;;5015962;28;19913;-86
2022/01/27 10:23:40;;;;;;;;;;;;;;;;;;5031822;28;19923;-84
2022/01/27 10:26:31;;;;;;;;;;;;;;;;;;5027551;28;19924;-86
2022/01/27 10:29:14;;;;;;;;;;;;;;;;;;5034283;28;19960;-85
2022/01/27 10:31:41;;;;;;;;;;;;;;;;;;5024218;28;20281;-84
2022/01/27 10:34:10;;;;;;;;;;;;;;;;;;5047825;28;20362;-83
2022/01/27 10:36:45;;;;;;;;;;;;;;;;;;5024251;28;19917;-83
2022/01/27 10:39:10;;;;;;;;;;;;;;;;;;5047920;28;19931;-84
2022/01/27 10:41:38;;;;;;;;;;;;;;;;;;5019892;28;19912;-83
2022/01/27 10:44:14;;;;;;;;;;;;;;;;;;5020017;28;20350;-85
2022/01/27 10:46:59;;;;;;;;;;;;;;;;;;5024375;28;19912;-82
2022/01/27 10:52:45;;;;;;;;;;;;;;;;;;5013990;28;19913;-84
2022/01/27 10:57:51;;;;;;;;;;;;;;;;;;5317583;22;19955;-86
2022/01/27 11:00:18;;;;;;;;;;;;;;;;;;5046989;28;19931;-89
2022/01/27 11:02:58;;;;;;;;;;;;;;;;;;5047720;28;20334;-85
2022/01/27 11:05:28;;;;;;;;;;;;;;;;;;5038312;28;19924;-89
2022/01/27 11:07:58;;;;;;;;;;;;;;;;;;5052753;28;19976;-87
2022/01/27 11:10:24;;;;;;;;;;;;;;;;;;5037362;28;19921;-91
2022/01/27 11:12:50;;;;;;;;;;;;;;;;;;5050798;28;19921;-87
2022/01/27 11:15:17;;;;;;;;;;;;;;;;;;5038623;28;19913;-92
2022/01/27 11:17:44;;;;;;;;;;;;;;;;;;5043225;28;19917;-89
2022/01/27 11:25:51;;;;;;;;;;;;;;;;;;4922517;29;19923;-89
2022/01/27 11:28:22;;;;;;;;;;;;;;;;;;4952791;29;19918;-88
2022/01/27 11:31:24;;;;;;;;;;;;;;;;;;4953078;29;19965;-88
2022/01/27 11:33:59;;;;;;;;;;;;;;;;;;4956730;29;19934;-88
2022/01/27 11:36:29;;;;;;;;;;;;;;;;;;4937590;29;20010;-90
2022/01/27 11:38:54;;;;;;;;;;;;;;;;;;4937476;29;20002;-86
2022/01/27 11:41:44;;;;;;;;;;;;;;;;;;4945332;28;20074;-89
2022/01/27 11:44:36;;;;;;;;;;;;;;;;;;4937015;29;19918;-91
2022/01/27 11:50:01;;;;;;;;;;;;;;;;;;4937616;29;19915;-90
2022/01/27 11:52:27;;;;;;;;;;;;;;;;;;4956395;29;19926;-87
2022/01/27 11:54:54;;;;;;;;;;;;;;;;;;5025311;28;20008;-91
2022/01/27 12:00:23;;;;;;;;;;;;;;;;;;5035863;28;19972;-89
2022/01/27 12:03:01;;;;;;;;;;;;;;;;;;5030911;28;19925;-85
2022/01/27 12:05:30;;;;;;;;;;;;;;;;;;5034985;28;20271;-87
2022/01/27 12:08:48;;;;;;;;;;;;;;;;;;5053048;28;19913;-90
2022/01/27 12:11:09;;;;;;;;;;;;;;;;;;5053337;28;20007;-89
2022/01/27 12:13:50;;;;;;;;;;;;;;;;;;5051750;28;19930;-86
2022/01/27 12:19:04;;;;;;;;;;;;;;;;;;5058368;28;20007;-84
2022/01/27 12:21:35;;;;;;;;;;;;;;;;;;5054809;28;19916;-85
2022/01/27 12:24:13;;;;;;;;;;;;;;;;;;5055197;28;20276;-90
2022/01/27 12:29:45;;;;;;;;;;;;;;;;;;5055407;28;19927;-88
2022/01/27 12:32:17;;;;;;;;;;;;;;;;;;5056128;28;19916;-85
2022/01/27 12:35:03;;;;;;;;;;;;;;;;;;5054761;28;19917;-90
2022/01/27 12:37:34;;;;;;;;;;;;;;;;;;5055196;28;19913;-87
2022/01/27 12:40:00;;;;;;;;;;;;;;;;;;5055650;28;20253;-86
2022/01/27 12:42:31;;;;;;;;;;;;;;;;;;5055866;28;19913;-84
2022/01/27 12:44:57;;;;;;;;;;;;;;;;;;5055009;28;20411;-89
2022/01/27 12:47:23;;;;;;;;;;;;;;;;;;5057481;28;20231;-86
2022/01/27 12:50:02;;;;;;;;;;;;;;;;;;5054517;28;19921;-84
2022/01/27 12:52:33;;;;;;;;;;;;;;;;;;5053912;28;19917;-84
2022/01/27 12:55:00;;;;;;;;;;;;;;;;;;5058619;28;19913;-81
2022/01/27 12:57:28;;;;;;;;;;;;;;;;;;5057827;28;19927;-81
2022/01/27 12:59:54;;;;;;;;;;;;;;;;;;5055509;28;20015;-82
2022/01/27 13:02:20;;;;;;;;;;;;;;;;;;5065218;28;19924;-83
2022/01/27 13:04:45;;;;;;;;;;;;;;;;;;5036612;28;19932;-85
2022/01/27 13:07:11;;;;;;;;;;;;;;;;;;5033570;28;20369;-88
2022/01/27 13:09:38;;;;;;;;;;;;;;;;;;5038387;28;19917;-90
2022/01/27 13:12:36;;;;;;;;;;;;;;;;;;5038829;28;19914;-90
2022/01/27 13:15:14;;;;;;;;;;;;;;;;;;5038525;28;19913;-88
2022/01/27 13:17:47;;;;;;;;;;;;;;;;;;5037974;28;19924;-85
2022/01/27 13:20:17;;;;;;;;;;;;;;;;;;5037790;28;19921;-91
2022/01/27 13:22:46;;;;;;;;;;;;;;;;;;5037774;28;20334;-91
2022/01/27 13:25:11;;;;;;;;;;;;;;;;;;5038592;28;19974;-90
2022/01/27 13:27:36;;;;;;;;;;;;;;;;;;5037489;28;19913;-91
2022/01/27 13:30:02;;;;;;;;;;;;;;;;;;5037975;28;20338;-92
2022/01/27 13:32:27;;;;;;;;;;;;;;;;;;5038178;28;20257;-91
2022/01/27 13:34:54;;;;;;;;;;;;;;;;;;5038583;28;19913;-93
2022/01/27 13:37:28;;;;;;;;;;;;;;;;;;5037242;28;20305;-91
2022/01/27 13:42:19;;;;;;;;;;;;;;;;;;5019764;28;19927;-92
2022/01/27 13:44:54;;;;;;;;;;;;;;;;;;5019202;28;19918;-92
2022/01/27 13:47:48;;;;;;;;;;;;;;;;;;5022366;28;19913;-91
2022/01/27 13:50:15;;;;;;;;;;;;;;;;;;5037767;28;19951;-92
2022/01/27 13:52:40;;;;;;;;;;;;;;;;;;5020195;28;19948;-90
2022/01/27 13:55:08;;;;;;;;;;;;;;;;;;5036401;28;19979;-92
2022/01/27 13:57:47;;;;;;;;;;;;;;;;;;5036512;28;19948;-91
2022/01/27 14:00:14;;;;;;;;;;;;;;;;;;5018631;28;19953;-91
2022/01/27 14:02:40;;;;;;;;;;;;;;;;;;5016832;28;19924;-90
2022/01/27 14:05:17;;;;;;;;;;;;;;;;;;4997847;28;20009;-90
2022/01/27 14:07:55;;;;;;;;;;;;;;;;;;4996834;28;20350;-91
2022/01/27 14:10:25;;;;;;;;;;;;;;;;;;4996714;28;19926;-91
2022/01/27 14:12:58;;;;;;;;;;;;;;;;;;4996534;28;20232;-86
2022/01/27 14:15:34;;;;;;;;;;;;;;;;;;4986741;28;20472;-93
2022/01/27 14:18:07;;;;;;;;;;;;;;;;;;4981537;28;19933;-91
2022/01/27 14:20:35;;;;;;;;;;;;;;;;;;4996828;28;19945;-90
2022/01/27 14:23:12;;;;;;;;;;;;;;;;;;4997540;28;19917;-91
2022/01/27 14:25:44;;;;;;;;;;;;;;;;;;4952653;28;19980;-90
2022/01/27 14:28:11;;;;;;;;;;;;;;;;;;5000101;28;20389;-90
2022/01/27 14:30:37;;;;;;;;;;;;;;;;;;5015691;28;19925;-92
2022/01/27 14:33:02;;;;;;;;;;;;;;;;;;5016350;28;19913;-90
2022/01/27 14:35:27;;;;;;;;;;;;;;;;;;5002023;28;19913;-91
2022/01/27 14:37:57;;;;;;;;;;;;;;;;;;5020237;28;20307;-91
2022/01/27 14:40:22;;;;;;;;;;;;;;;;;;5038396;28;19917;-91
2022/01/27 14:42:50;;;;;;;;;;;;;;;;;;5038210;28;19914;-90
2022/01/27 14:45:18;;;;;;;;;;;;;;;;;;5037782;28;19917;-90
2022/01/27 14:47:43;;;;;;;;;;;;;;;;;;5037537;28;19940;-90
2022/01/27 14:50:09;;;;;;;;;;;;;;;;;;5037512;28;19917;-89
2022/01/27 14:52:36;;;;;;;;;;;;;;;;;;5037781;28;19917;-87
2022/01/27 14:55:02;;;;;;;;;;;;;;;;;;5037130;28;19924;-90
2022/01/27 14:57:27;;;;;;;;;;;;;;;;;;5036115;28;19975;-91
2022/01/27 14:59:52;;;;;;;;;;;;;;;;;;5037141;28;19917;-88
2022/01/27 15:02:18;;;;;;;;;;;;;;;;;;5036863;28;19928;-90
2022/01/27 15:04:43;;;;;;;;;;;;;;;;;;5034985;28;19917;-87
2022/01/27 15:07:08;;;;;;;;;;;;;;;;;;5038045;28;19964;-86
2022/01/27 15:09:35;;;;;;;;;;;;;;;;;;5038127;28;19925;-86
2022/01/27 15:12:01;;;;;;;;;;;;;;;;;;5038095;28;20012;-87
2022/01/27 15:19:54;;;;;;;;;;;;;;;;;;5037165;28;19928;-86
2022/01/27 15:22:20;;;;;;;;;;;;;;;;;;5036686;28;19917;-89
2022/01/27 15:24:46;;;;;;;;;;;;;;;;;;5050632;28;19928;-87
2022/01/27 15:27:11;;;;;;;;;;;;;;;;;;5041230;28;19920;-88
2022/01/27 15:29:38;;;;;;;;;;;;;;;;;;5056486;28;19912;-85
2022/01/27 15:32:32;;;;;;;;;;;;;;;;;;5056948;28;19959;-85
2022/01/27 15:35:00;;;;;;;;;;;;;;;;;;5056975;28;19912;-87
2022/01/27 15:37:28;;;;;;;;;;;;;;;;;;5047985;28;19924;-87
2022/01/27 15:39:57;;;;;;;;;;;;;;;;;;5033871;28;19922;-93
2022/01/27 15:42:26;;;;;;;;;;;;;;;;;;5024997;28;19971;-89
2022/01/27 15:44:59;;;;;;;;;;;;;;;;;;5025386;28;19924;-92
2022/01/27 15:47:25;;;;;;;;;;;;;;;;;;5042052;28;19980;-89
2022/01/27 15:49:53;;;;;;;;;;;;;;;;;;5024184;28;19996;-92
2022/01/27 15:52:18;;;;;;;;;;;;;;;;;;5051122;28;19939;-92
2022/01/27 15:54:45;;;;;;;;;;;;;;;;;;5039241;28;19913;-89
2022/01/27 15:57:10;;;;;;;;;;;;;;;;;;5041667;28;20394;-87
2022/01/27 15:59:38;;;;;;;;;;;;;;;;;;5051742;28;19909;-88
2022/01/27 16:04:48;;;;;;;;;;;;;;;;;;5249512;22;19947;-89
2022/01/27 16:07:24;;;;;;;;;;;;;;;;;;4995591;28;19906;-89
2022/01/27 16:09:50;;;;;;;;;;;;;;;;;;5004510;28;19964;-90
2022/01/27 16:12:15;;;;;;;;;;;;;;;;;;4999719;28;19978;-91
2022/01/27 16:14:47;;;;;;;;;;;;;;;;;;5004342;28;19925;-90
2022/01/27 16:17:12;;;;;;;;;;;;;;;;;;5007712;28;19929;-88
2022/01/27 16:19:38;;;;;;;;;;;;;;;;;;5011647;28;19922;-88
2022/01/27 16:22:03;;;;;;;;;;;;;;;;;;5006831;28;19918;-84
2022/01/27 16:24:28;;;;;;;;;;;;;;;;;;4998517;28;20367;-84
2022/01/27 16:26:53;;;;;;;;;;;;;;;;;;4975508;28;20013;-75
2022/01/27 16:29:19;;;;;;;;;;;;;;;;;;4995439;28;20441;-85
2022/01/27 16:31:53;;;;;;;;;;;;;;;;;;4966645;28;19981;-85
2022/01/27 16:34:27;;;;;;;;;;;;;;;;;;4994490;28;19971;-82
2022/01/27 16:36:52;;;;;;;;;;;;;;;;;;5010616;28;20049;-87
2022/01/27 16:39:17;;;;;;;;;;;;;;;;;;5031851;28;20007;-88
2022/01/27 16:41:42;;;;;;;;;;;;;;;;;;5039254;28;19963;-85
2022/01/27 16:44:10;;;;;;;;;;;;;;;;;;5042456;28;20477;-87
2022/01/27 16:46:38;;;;;;;;;;;;;;;;;;5052317;28;19994;-85
2022/01/27 16:49:03;;;;;;;;;;;;;;;;;;5055284;28;19916;-83
2022/01/27 16:51:40;;;;;;;;;;;;;;;;;;5033120;28;20000;-83
2022/01/27 16:54:08;;;;;;;;;;;;;;;;;;5034841;28;19928;-85
2022/01/27 16:56:39;;;;;;;;;;;;;;;;;;5017684;28;19917;-87
2022/01/27 16:59:04;;;;;;;;;;;;;;;;;;5034552;28;19955;-84
2022/01/27 17:01:33;;;;;;;;;;;;;;;;;;5046096;28;20354;-84
2022/01/27 17:03:59;;;;;;;;;;;;;;;;;;5055804;28;19931;-84
2022/01/27 17:06:24;;;;;;;;;;;;;;;;;;5050743;28;19989;-84
2022/01/27 17:08:58;;;;;;;;;;;;;;;;;;5033956;28;19913;-84
2022/01/27 17:11:24;;;;;;;;;;;;;;;;;;5049958;28;20211;-89
2022/01/27 17:13:49;;;;;;;;;;;;;;;;;;5019057;28;19916;-82
2022/01/27 17:16:53;;;;;;;;;;;;;;;;;;5038284;28;19928;-86
2022/01/27 17:19:18;;;;;;;;;;;;;;;;;;5041444;28;19929;-85
2022/01/27 17:22:19;;;;;;;;;;;;;;;;;;5048578;28;19919;-91
2022/01/27 17:24:44;;;;;;;;;;;;;;;;;;5052362;28;19943;-85
2022/01/27 17:27:31;;;;;;;;;;;;;;;;;;5031871;28;19913;-89
2022/01/27 17:30:31;;;;;;;;;;;;;;;;;;5056319;28;19917;-90
2022/01/27 17:33:05;;;;;;;;;;;;;;;;;;5053847;28;19974;-83
2022/01/27 17:35:32;;;;;;;;;;;;;;;;;;5038486;28;19921;-85
2022/01/27 17:38:22;;;;;;;;;;;;;;;;;;5046045;28;19918;-86
2022/01/27 17:40:48;;;;;;;;;;;;;;;;;;5046118;28;19917;-86
2022/01/27 17:43:24;;;;;;;;;;;;;;;;;;5040406;28;19917;-87
2022/01/27 17:46:07;;;;;;;;;;;;;;;;;;5024634;28;19932;-83
2022/01/27 17:48:32;;;;;;;;;;;;;;;;;;5044788;28;20288;-86
2022/01/27 17:50:57;;;;;;;;;;;;;;;;;;5050439;28;19916;-88
2022/01/27 17:53:22;;;;;;;;;;;;;;;;;;5045658;28;20231;-90
2022/01/27 17:56:06;;;;;;;;;;;;;;;;;;5056459;28;19959;-83
2022/01/27 17:58:32;;;;;;;;;;;;;;;;;;5032789;28;19928;-85
2022/01/27 18:00:59;;;;;;;;;;;;;;;;;;5023544;28;19948;-85
2022/01/27 18:03:25;;;;;;;;;;;;;;;;;;5032172;28;19937;-88
2022/01/27 18:05:56;;;;;;;;;;;;;;;;;;5036159;28;19936;-86
2022/01/27 18:08:38;;;;;;;;;;;;;;;;;;5037455;28;20011;-87
2022/01/27 18:11:03;;;;;;;;;;;;;;;;;;5023278;28;19979;-89
2022/01/27 18:13:29;;;;;;;;;;;;;;;;;;5032038;28;19967;-88